createdAt,value
2023-03-17T00:00:46.353Z,2.40
2023-03-17T00:03:26.929Z,2.70
2023-03-17T00:05:55.198Z,2.70
2023-03-17T00:08:28.548Z,2.40
2023-03-17T00:10:56.335Z,2.40
2023-03-17T00:13:24.056Z,2.70
2023-03-17T00:15:59.489Z,3.00
2023-03-17T00:18:27.355Z,3.80
2023-03-17T00:20:54.185Z,3.30
2023-03-17T00:23:23.389Z,3.60
2023-03-17T00:25:51.808Z,2.70
2023-03-17T00:28:22.184Z,2.90
2023-03-17T00:30:54.846Z,3.00
2023-03-17T00:33:28.501Z,2.50
2023-03-17T00:35:57.295Z,2.40
2023-03-17T00:38:25.055Z,4.30
2023-03-17T00:40:51.914Z,3.00
2023-03-17T00:43:22.096Z,2.80
2023-03-17T00:45:49.498Z,3.10
2023-03-17T00:48:18.914Z,3.00
2023-03-17T00:50:47.657Z,2.90
2023-03-17T00:53:18.127Z,2.90
2023-03-17T00:55:46.012Z,2.40
2023-03-17T00:58:18.444Z,2.70
2023-03-17T01:00:45.756Z,2.40
2023-03-17T01:03:13.396Z,2.70
2023-03-17T01:05:41.499Z,2.60
2023-03-17T01:08:09.459Z,2.70
2023-03-17T01:10:37.328Z,2.70
2023-03-17T01:13:05.938Z,3.50
2023-03-17T01:15:34.159Z,3.60
2023-03-17T01:18:02.785Z,3.20
2023-03-17T01:20:33.445Z,3.00
2023-03-17T01:23:02.458Z,3.80
2023-03-17T01:25:29.512Z,2.70
2023-03-17T01:27:57.956Z,3.60
2023-03-17T01:30:24.782Z,3.40
2023-03-17T01:32:53.303Z,3.30
2023-03-17T01:35:20.612Z,4.40
2023-03-17T01:37:47.750Z,3.80
2023-03-17T01:40:28.166Z,3.10
2023-03-17T01:43:03.370Z,3.20
2023-03-17T01:46:07.511Z,3.20
2023-03-17T01:48:40.687Z,2.60
2023-03-17T01:51:11.654Z,3.40
2023-03-17T01:53:39.824Z,2.90
2023-03-17T01:56:08.552Z,4.40
2023-03-17T01:58:36.090Z,3.60
2023-03-17T02:01:03.264Z,3.10
2023-03-17T02:03:30.020Z,2.70
2023-03-17T02:05:59.092Z,3.40
2023-03-17T02:08:26.404Z,3.10
2023-03-17T02:11:08.155Z,3.40
2023-03-17T02:13:35.170Z,3.40
2023-03-17T02:16:02.346Z,3.90
2023-03-17T02:18:29.259Z,2.70
2023-03-17T02:21:30.540Z,3.70
2023-03-17T02:24:00.846Z,2.40
2023-03-17T02:26:31.443Z,2.40
2023-03-17T02:28:58.344Z,2.40
2023-03-17T02:31:26.909Z,2.10
2023-03-17T02:33:54.336Z,3.10
2023-03-17T02:36:22.218Z,2.10
2023-03-17T02:38:49.465Z,3.40
2023-03-17T02:41:16.981Z,3.40
2023-03-17T02:43:43.842Z,2.90
2023-03-17T02:46:10.763Z,3.10
2023-03-17T02:48:38.915Z,2.90
2023-03-17T02:51:06.134Z,2.70
2023-03-17T02:53:33.027Z,3.70
2023-03-17T02:55:59.813Z,4.00
2023-03-17T02:58:27.119Z,3.70
2023-03-17T03:00:54.034Z,3.50
2023-03-17T03:03:21.321Z,3.70
2023-03-17T03:05:48.239Z,3.70
2023-03-17T03:08:15.267Z,3.60
2023-03-17T03:10:42.616Z,4.30
2023-03-17T03:13:09.459Z,4.80
2023-03-17T03:15:36.303Z,4.00
2023-03-17T03:18:03.386Z,3.90
2023-03-17T03:20:30.530Z,3.40
2023-03-17T03:22:57.650Z,3.00
2023-03-17T03:25:24.402Z,2.60
2023-03-17T03:27:51.717Z,5.40
2023-03-17T03:30:18.558Z,3.40
2023-03-17T03:32:45.487Z,3.70
2023-03-17T03:35:12.333Z,3.40
2023-03-17T03:37:39.162Z,4.20
2023-03-17T03:40:07.565Z,4.40
2023-03-17T03:42:34.317Z,2.90
2023-03-17T03:45:01.501Z,3.00
2023-03-17T03:47:28.273Z,3.00
2023-03-17T03:49:55.202Z,3.50
2023-03-17T03:52:22.047Z,2.60
2023-03-17T03:54:48.988Z,3.10
2023-03-17T03:57:15.846Z,4.20
2023-03-17T03:59:42.626Z,4.70
2023-03-17T04:02:09.792Z,4.60
2023-03-17T04:04:37.083Z,5.10
2023-03-17T04:07:03.921Z,4.10
2023-03-17T04:09:31.020Z,4.60
2023-03-17T04:11:57.741Z,4.30
2023-03-17T04:14:24.558Z,5.50
2023-03-17T04:16:51.387Z,4.10
2023-03-17T04:19:18.341Z,4.70
2023-03-17T04:21:45.124Z,5.60
2023-03-17T04:24:11.905Z,4.50
2023-03-17T04:26:39.570Z,5.20
2023-03-17T04:29:08.098Z,4.70
2023-03-17T04:31:36.292Z,4.70
2023-03-17T04:34:03.529Z,5.20
2023-03-17T04:36:30.264Z,5.40
2023-03-17T04:38:57.014Z,5.90
2023-03-17T04:41:24.239Z,5.80
2023-03-17T04:43:51.319Z,5.60
2023-03-17T04:46:18.135Z,6.20
2023-03-17T04:48:44.974Z,4.80
2023-03-17T04:51:12.205Z,6.40
2023-03-17T04:53:39.191Z,6.30
2023-03-17T04:56:06.416Z,6.40
2023-03-17T04:58:33.347Z,5.20
2023-03-17T05:01:00.697Z,6.00
2023-03-17T05:03:28.688Z,4.70
2023-03-17T05:05:57.662Z,3.90
2023-03-17T05:08:26.284Z,3.20
2023-03-17T05:10:53.164Z,2.90
2023-03-17T05:13:20.014Z,3.90
2023-03-17T05:15:48.045Z,4.10
2023-03-17T05:18:16.258Z,3.40
2023-03-17T05:20:43.766Z,3.80
2023-03-17T05:23:10.608Z,3.70
2023-03-17T05:25:37.397Z,3.60
2023-03-17T05:28:04.568Z,3.20
2023-03-17T05:30:31.744Z,2.80
2023-03-17T05:32:59.364Z,4.00
2023-03-17T05:35:27.579Z,3.50
2023-03-17T05:37:54.610Z,3.50
2023-03-17T05:40:23.778Z,3.90
2023-03-17T05:42:53.675Z,3.40
2023-03-17T05:45:20.525Z,3.50
2023-03-17T05:47:47.566Z,3.00
2023-03-17T05:50:14.378Z,3.00
2023-03-17T05:52:41.467Z,3.80
2023-03-17T05:55:08.717Z,3.90
2023-03-17T05:57:35.590Z,4.70
2023-03-17T06:00:02.661Z,4.20
2023-03-17T06:02:32.131Z,4.60
2023-03-17T06:04:59.229Z,5.90
2023-03-17T06:07:28.396Z,7.40
2023-03-17T06:09:58.107Z,7.40
2023-03-17T06:12:25.897Z,8.80
2023-03-17T06:14:52.683Z,8.30
2023-03-17T06:17:19.605Z,8.10
2023-03-17T06:19:49.022Z,8.60
2023-03-17T06:22:16.299Z,8.20
2023-03-17T06:24:43.001Z,8.00
2023-03-17T06:27:11.057Z,7.50
2023-03-17T06:29:57.866Z,5.30
2023-03-17T06:32:25.307Z,5.10
2023-03-17T06:34:53.874Z,6.60
2023-03-17T06:44:30.761Z,6.40
2023-03-17T06:46:58.460Z,4.90
2023-03-17T06:49:25.844Z,5.50
2023-03-17T06:51:52.684Z,5.70
2023-03-17T06:54:20.697Z,6.30
2023-03-17T06:56:47.713Z,6.70
2023-03-17T06:59:14.546Z,8.00
2023-03-17T07:01:41.361Z,6.60
2023-03-17T07:04:08.488Z,5.00
2023-03-17T07:06:35.787Z,4.70
2023-03-17T07:09:03.785Z,5.00
2023-03-17T07:11:30.855Z,5.10
2023-03-17T07:13:57.677Z,5.90
2023-03-17T07:16:24.762Z,4.30
2023-03-17T07:18:51.742Z,4.10
2023-03-17T07:21:18.761Z,6.70
2023-03-17T07:23:45.684Z,6.40
2023-03-17T07:26:12.868Z,5.70
2023-03-17T07:28:40.423Z,4.40
2023-03-17T07:31:14.151Z,3.60
2023-03-17T07:33:42.155Z,4.00
2023-03-17T07:36:09.238Z,4.40
2023-03-17T07:38:37.091Z,3.40
2023-03-17T07:41:04.983Z,3.60
2023-03-17T07:43:31.997Z,3.00
2023-03-17T07:45:59.109Z,2.40
2023-03-17T07:48:26.127Z,2.80
2023-03-17T07:50:53.102Z,4.60
2023-03-17T07:53:19.948Z,3.70
2023-03-17T07:55:47.174Z,5.50
2023-03-17T07:58:15.861Z,3.80
2023-03-17T08:00:42.906Z,9.90
2023-03-17T08:03:11.221Z,4.50
2023-03-17T08:05:38.185Z,3.50
2023-03-17T08:08:08.569Z,3.00
2023-03-17T08:10:35.990Z,4.00
2023-03-17T08:13:03.053Z,2.90
2023-03-17T08:15:31.324Z,2.60
2023-03-17T08:17:58.086Z,3.60
2023-03-17T08:20:24.890Z,2.70
2023-03-17T08:22:51.673Z,3.70
2023-03-17T08:25:18.535Z,4.40
2023-03-17T08:27:45.366Z,4.00
2023-03-17T08:30:12.840Z,3.10
2023-03-17T08:32:39.788Z,3.10
2023-03-17T08:35:06.804Z,2.30
2023-03-17T08:37:33.884Z,7.10
2023-03-17T08:40:01.346Z,8.80
2023-03-17T08:42:28.235Z,9.50
2023-03-17T08:44:55.087Z,11.20
2023-03-17T08:47:21.928Z,4.20
2023-03-17T08:49:48.722Z,4.00
2023-03-17T08:52:16.459Z,3.10
2023-03-17T08:54:43.304Z,3.90
2023-03-17T08:57:10.187Z,3.70
2023-03-17T08:59:37.270Z,5.10
2023-03-17T09:02:04.315Z,4.60
2023-03-17T09:04:31.187Z,3.60
2023-03-17T09:07:03.830Z,4.20
2023-03-17T09:09:32.235Z,3.60
2023-03-17T09:11:59.469Z,4.30
2023-03-17T09:14:26.371Z,4.10
2023-03-17T09:16:53.417Z,4.10
2023-03-17T09:19:20.380Z,4.00
2023-03-17T09:21:47.944Z,4.60
2023-03-17T09:24:14.757Z,4.00
2023-03-17T09:26:41.920Z,4.50
2023-03-17T09:29:08.952Z,4.30
2023-03-17T09:31:36.927Z,4.60
2023-03-17T09:34:05.222Z,4.70
2023-03-17T09:36:35.542Z,4.60
2023-03-17T09:39:02.398Z,6.30
2023-03-17T09:41:31.957Z,4.60
2023-03-17T09:44:20.219Z,3.90
2023-03-17T09:47:05.490Z,3.80
2023-03-17T09:49:52.449Z,3.60
2023-03-17T09:52:36.957Z,3.00
2023-03-17T09:55:08.413Z,5.00
2023-03-17T09:57:38.149Z,18.20
2023-03-17T10:00:15.573Z,7.80
2023-03-17T10:02:43.380Z,4.60
2023-03-17T10:05:27.074Z,4.10
2023-03-17T10:08:29.411Z,3.10
2023-03-17T10:11:16.260Z,3.30
2023-03-17T10:14:04.629Z,3.20
2023-03-17T10:16:43.063Z,3.00
2023-03-17T10:19:30.809Z,2.90
2023-03-17T10:22:05.571Z,3.00
2023-03-17T10:24:34.376Z,3.10
2023-03-17T10:27:06.489Z,3.20
2023-03-17T10:29:33.326Z,2.00
2023-03-17T10:32:00.419Z,1.90
2023-03-17T10:34:39.635Z,2.40
2023-03-17T10:37:17.711Z,1.90
2023-03-17T10:39:48.259Z,2.90
2023-03-17T10:42:30.493Z,3.50
2023-03-17T10:45:01.179Z,3.20
2023-03-17T10:47:38.410Z,2.00
2023-03-17T10:50:32.172Z,2.40
2023-03-17T10:53:03.303Z,2.10
2023-03-17T10:55:34.221Z,1.60
2023-03-17T10:58:03.780Z,2.70
2023-03-17T11:00:36.883Z,1.80
2023-03-17T11:03:12.398Z,13.40
2023-03-17T11:05:40.147Z,3.50
2023-03-17T11:08:25.181Z,5.30
2023-03-17T11:13:30.242Z,2.00
2023-03-17T11:16:22.657Z,2.00
2023-03-17T11:18:54.933Z,2.00
2023-03-17T11:21:30.242Z,2.10
2023-03-17T11:24:14.290Z,1.70
2023-03-17T11:26:48.988Z,1.80
2023-03-17T11:29:30.304Z,1.70
2023-03-17T11:31:59.345Z,2.50
2023-03-17T11:34:41.447Z,2.70
2023-03-17T11:37:25.353Z,2.20
2023-03-17T11:40:03.060Z,1.30
2023-03-17T11:42:45.022Z,1.40
2023-03-17T11:45:12.537Z,1.40
2023-03-17T11:47:51.369Z,1.40
2023-03-17T11:50:34.479Z,1.30
2023-03-17T11:53:01.826Z,1.30
2023-03-17T11:55:50.194Z,1.20
2023-03-17T11:58:44.559Z,1.50
2023-03-17T12:01:27.278Z,1.30
2023-03-17T12:06:50.750Z,1.20
2023-03-17T12:09:35.927Z,1.60
2023-03-17T12:12:04.659Z,1.80
2023-03-17T12:14:40.511Z,1.30
2023-03-17T12:17:17.018Z,1.20
2023-03-17T12:20:12.677Z,1.50
2023-03-17T12:22:57.150Z,1.40
2023-03-17T12:25:40.657Z,1.40
2023-03-17T12:28:23.113Z,1.40
2023-03-17T12:33:43.926Z,1.00
2023-03-17T12:36:15.454Z,0.90
2023-03-17T12:39:01.799Z,1.30
2023-03-17T12:41:41.623Z,1.20
2023-03-17T12:44:42.137Z,1.20
2023-03-17T12:47:21.959Z,0.90
2023-03-17T12:49:56.997Z,1.20
2023-03-17T12:52:37.566Z,0.80
2023-03-17T12:55:12.299Z,0.90
2023-03-17T12:57:45.949Z,0.70
2023-03-17T13:00:27.169Z,0.80
2023-03-17T13:03:19.065Z,0.50
2023-03-17T13:05:50.030Z,0.50
2023-03-17T13:08:35.137Z,0.50
2023-03-17T13:11:47.127Z,0.40
2023-03-17T13:14:23.817Z,0.40
2023-03-17T13:16:50.765Z,0.50
2023-03-17T13:19:25.162Z,0.40
2023-03-17T13:22:01.183Z,0.50
2023-03-17T13:24:51.442Z,0.60
2023-03-17T13:27:30.968Z,0.50
2023-03-17T13:29:59.371Z,0.40
2023-03-17T13:32:26.571Z,0.70
2023-03-17T13:34:55.885Z,0.50
2023-03-17T13:37:44.263Z,0.60
2023-03-17T13:40:23.596Z,0.60
2023-03-17T13:43:01.567Z,0.80
2023-03-17T13:45:46.557Z,0.60
2023-03-17T13:48:27.485Z,0.60
2023-03-17T13:51:02.267Z,0.70
2023-03-17T13:53:33.191Z,0.50
2023-03-17T13:56:21.913Z,0.60
2023-03-17T13:59:12.550Z,0.60
2023-03-17T14:01:52.720Z,0.60
2023-03-17T14:04:25.832Z,0.70
2023-03-17T14:06:56.770Z,0.60
2023-03-17T14:09:36.252Z,0.80
2023-03-17T14:12:11.105Z,0.60
2023-03-17T14:15:06.964Z,0.80
2023-03-17T14:18:08.802Z,0.70
2023-03-17T14:20:35.783Z,0.80
2023-03-17T14:23:04.244Z,0.90
2023-03-17T14:25:39.050Z,0.90
2023-03-17T14:28:11.477Z,1.20
2023-03-17T14:33:26.848Z,0.70
2023-03-17T14:35:58.750Z,0.90
2023-03-17T14:38:28.404Z,1.10
2023-03-17T14:41:06.929Z,0.90
2023-03-17T14:43:36.197Z,0.90
2023-03-17T14:46:04.598Z,0.80
2023-03-17T14:48:37.126Z,1.20
2023-03-17T14:51:28.678Z,1.00
2023-03-17T14:54:00.669Z,0.70
2023-03-17T14:56:35.068Z,0.80
2023-03-17T14:59:08.292Z,0.70
2023-03-17T15:01:39.761Z,1.10
2023-03-17T15:04:18.671Z,0.80
2023-03-17T15:06:52.999Z,1.10
2023-03-17T15:09:28.696Z,0.80
2023-03-17T15:12:07.281Z,0.90
2023-03-17T15:14:38.894Z,1.20
2023-03-17T15:17:16.245Z,0.80
2023-03-17T15:19:46.682Z,0.80
2023-03-17T15:22:40.286Z,1.00
2023-03-17T15:25:28.807Z,0.70
2023-03-17T15:27:56.096Z,1.10
2023-03-17T15:30:23.769Z,1.00
2023-03-17T15:32:57.896Z,1.10
2023-03-17T15:35:24.724Z,1.20
2023-03-17T15:37:51.545Z,1.10
2023-03-17T15:40:18.734Z,1.20
2023-03-17T15:42:45.745Z,1.20
2023-03-17T15:45:16.845Z,1.30
2023-03-17T15:47:47.207Z,1.60
2023-03-17T15:50:23.975Z,2.00
2023-03-17T15:52:58.107Z,2.10
2023-03-17T15:55:30.990Z,1.20
2023-03-17T15:57:58.725Z,1.20
2023-03-17T16:00:48.160Z,1.70
2023-03-17T16:03:32.443Z,1.80
2023-03-17T16:06:00.662Z,1.70
2023-03-17T16:08:27.519Z,1.40
2023-03-17T16:10:54.652Z,1.60
2023-03-17T16:13:22.427Z,1.70
2023-03-17T16:15:59.984Z,1.90
2023-03-17T16:18:37.765Z,1.30
2023-03-17T16:21:24.683Z,1.60
2023-03-17T16:23:51.646Z,2.10
2023-03-17T16:26:18.543Z,1.90
2023-03-17T16:28:47.804Z,1.50
2023-03-17T16:31:22.213Z,1.70
2023-03-17T16:33:50.402Z,2.00
2023-03-17T16:36:19.559Z,1.80
2023-03-17T16:38:47.757Z,1.90
2023-03-17T16:41:23.265Z,1.40
2023-03-17T16:43:53.727Z,2.50
2023-03-17T16:46:21.897Z,2.20
2023-03-17T16:48:50.375Z,3.30
2023-03-17T16:51:17.935Z,2.70
2023-03-17T16:53:45.783Z,2.30
2023-03-17T16:56:21.569Z,4.10
2023-03-17T16:58:49.017Z,2.40
2023-03-17T17:01:20.056Z,2.70
2023-03-17T17:03:47.568Z,1.80
2023-03-17T17:06:15.129Z,2.50
2023-03-17T17:08:46.351Z,2.10
2023-03-17T17:11:14.957Z,2.50
2023-03-17T17:13:43.521Z,3.30
2023-03-17T17:16:25.536Z,2.50
2023-03-17T17:18:52.419Z,2.90
2023-03-17T17:21:19.227Z,3.30
2023-03-17T17:23:46.201Z,4.30
2023-03-17T17:26:13.229Z,3.00
2023-03-17T17:28:40.465Z,3.70
2023-03-17T17:31:09.000Z,3.70
2023-03-17T17:33:37.345Z,3.70
2023-03-17T17:36:07.844Z,4.40
2023-03-17T17:38:34.718Z,5.10
2023-03-17T17:41:06.969Z,6.80
2023-03-17T17:43:34.008Z,6.80
2023-03-17T17:46:01.255Z,6.40
2023-03-17T17:48:28.695Z,5.70
2023-03-17T17:50:56.912Z,5.40
2023-03-17T17:53:24.520Z,6.00
2023-03-17T17:55:51.942Z,7.20
2023-03-17T17:58:23.108Z,9.10
2023-03-17T18:00:50.936Z,8.60
2023-03-17T18:03:22.220Z,7.10
2023-03-17T18:05:49.552Z,6.80
2023-03-17T18:08:17.042Z,5.70
2023-03-17T18:10:43.809Z,5.20
2023-03-17T18:13:11.030Z,5.40
2023-03-17T18:15:38.170Z,5.40
2023-03-17T18:18:05.778Z,5.10
2023-03-17T18:20:33.018Z,6.10
2023-03-17T18:23:00.140Z,6.20
2023-03-17T18:25:27.275Z,5.50
2023-03-17T18:27:55.052Z,5.20
2023-03-17T18:30:25.690Z,3.10
2023-03-17T18:32:57.271Z,2.90
2023-03-17T18:35:27.164Z,4.20
2023-03-17T18:37:57.106Z,3.90
2023-03-17T18:40:25.043Z,4.00
2023-03-17T18:42:51.869Z,4.20
2023-03-17T18:45:18.900Z,3.50
2023-03-17T18:47:45.697Z,4.00
2023-03-17T18:50:14.371Z,4.30
2023-03-17T18:52:42.817Z,3.90
2023-03-17T18:55:12.490Z,5.30
2023-03-17T18:57:44.462Z,5.80
2023-03-17T19:00:13.991Z,4.70
2023-03-17T19:02:40.758Z,4.10
2023-03-17T19:05:08.554Z,3.40
2023-03-17T19:07:35.786Z,3.30
2023-03-17T19:10:04.684Z,4.80
2023-03-17T19:12:32.024Z,5.20
2023-03-17T19:14:59.292Z,5.60
2023-03-17T19:17:26.072Z,5.30
2023-03-17T19:19:52.848Z,6.00
2023-03-17T19:22:19.793Z,6.70
2023-03-17T19:24:48.186Z,6.30
2023-03-17T19:27:15.064Z,7.50
2023-03-17T19:29:42.093Z,9.00
2023-03-17T19:32:09.573Z,8.60
2023-03-17T19:34:36.644Z,9.70
2023-03-17T19:37:04.061Z,12.60
2023-03-17T19:39:31.460Z,11.00
2023-03-17T19:41:59.379Z,13.30
2023-03-17T19:44:26.541Z,12.90
2023-03-17T19:46:53.440Z,15.20
2023-03-17T19:49:21.275Z,19.60
2023-03-17T19:51:49.150Z,18.20
2023-03-17T19:54:16.709Z,15.30
2023-03-17T19:56:43.589Z,16.10
2023-03-17T19:59:10.500Z,13.90
2023-03-17T20:01:38.730Z,14.70
2023-03-17T20:04:07.145Z,17.80
2023-03-17T20:06:34.775Z,19.60
2023-03-17T20:09:04.270Z,22.40
2023-03-17T20:11:34.907Z,24.00
2023-03-17T20:14:02.851Z,27.10
2023-03-17T20:16:36.157Z,28.00
2023-03-17T20:19:04.167Z,31.50
2023-03-17T20:21:31.490Z,30.40
2023-03-17T20:23:58.397Z,33.40
2023-03-17T20:26:25.394Z,34.10
2023-03-17T20:28:52.504Z,36.30
2023-03-17T20:31:19.538Z,37.80
2023-03-17T20:33:46.427Z,41.30
2023-03-17T20:36:14.087Z,38.90
2023-03-17T20:38:43.162Z,38.60
2023-03-17T20:41:16.054Z,35.10
2023-03-17T20:43:43.542Z,33.20
2023-03-17T20:46:19.534Z,40.90
2023-03-17T20:48:48.326Z,44.10
2023-03-17T20:51:17.248Z,46.30
2023-03-17T20:53:46.332Z,45.20
2023-03-17T20:56:19.783Z,45.10
2023-03-17T20:58:48.593Z,46.40
2023-03-17T21:01:20.758Z,50.40
2023-03-17T21:03:49.061Z,49.00
2023-03-17T21:06:16.764Z,51.80
2023-03-17T21:08:44.057Z,48.60
2023-03-17T21:11:15.344Z,46.20
2023-03-17T21:13:44.181Z,42.50
2023-03-17T21:16:25.173Z,41.40
2023-03-17T21:18:52.628Z,40.90
2023-03-17T21:21:20.887Z,43.30
2023-03-17T21:23:48.117Z,47.50
2023-03-17T21:26:14.957Z,44.40
2023-03-17T21:28:42.509Z,44.20
2023-03-17T21:31:10.448Z,40.40
2023-03-17T21:33:37.568Z,38.40
2023-03-17T21:36:05.751Z,39.00
2023-03-17T21:38:32.743Z,39.90
2023-03-17T21:41:21.493Z,38.00
2023-03-17T21:43:48.296Z,36.10
2023-03-17T21:46:15.456Z,35.20
2023-03-17T21:48:42.325Z,37.10
2023-03-17T21:51:09.184Z,39.20
2023-03-17T21:53:35.964Z,35.80
2023-03-17T21:56:02.823Z,35.40
2023-03-17T21:58:29.701Z,35.30
2023-03-17T22:00:56.599Z,38.70
2023-03-17T22:03:23.399Z,34.10
2023-03-17T22:05:50.921Z,35.80
2023-03-17T22:08:18.372Z,34.20
2023-03-17T22:10:45.098Z,37.20
2023-03-17T22:13:12.584Z,39.00
2023-03-17T22:15:39.425Z,38.20
2023-03-17T22:18:06.228Z,38.90
2023-03-17T22:20:33.432Z,38.50
2023-03-17T22:23:00.536Z,36.90
2023-03-17T22:25:27.612Z,37.20
2023-03-17T22:27:54.453Z,34.60
2023-03-17T22:30:21.833Z,39.30
2023-03-17T22:32:49.011Z,36.40
2023-03-17T22:35:19.221Z,40.00
2023-03-17T22:37:46.567Z,40.60
2023-03-17T22:40:13.657Z,38.60
2023-03-17T22:42:40.620Z,41.60
2023-03-17T22:45:08.600Z,40.00
2023-03-17T22:47:35.520Z,36.80
2023-03-17T22:50:02.331Z,34.10
2023-03-17T22:52:29.968Z,32.60
2023-03-17T22:54:56.831Z,33.20
2023-03-17T22:57:23.791Z,33.40
2023-03-17T22:59:52.227Z,32.90
2023-03-17T23:02:19.040Z,30.20
2023-03-17T23:04:45.807Z,30.90
2023-03-17T23:07:12.578Z,29.20
2023-03-17T23:09:41.395Z,26.20
2023-03-17T23:12:09.126Z,23.80
2023-03-17T23:14:37.203Z,24.40
2023-03-17T23:17:06.155Z,22.40
2023-03-17T23:19:33.179Z,24.20
2023-03-17T23:22:00.045Z,23.20
2023-03-17T23:24:27.011Z,22.70
2023-03-17T23:26:53.749Z,21.30
2023-03-17T23:29:20.486Z,23.50
2023-03-17T23:31:47.636Z,22.10
2023-03-17T23:34:14.379Z,20.90
2023-03-17T23:36:41.203Z,20.40
2023-03-17T23:39:09.211Z,20.90
2023-03-17T23:41:36.330Z,19.90
2023-03-17T23:44:04.375Z,18.30
2023-03-17T23:46:31.734Z,19.00
2023-03-17T23:48:58.609Z,18.80
2023-03-17T23:51:25.353Z,17.70
2023-03-17T23:53:53.084Z,16.60
2023-03-17T23:56:20.688Z,16.40
2023-03-17T23:58:49.142Z,17.10
